sensor_id;sensor_type;location;lat;lon;timestamp;P1;durP1;ratioP1;P2;durP2;ratioP2
15363;SDS011;7781;49.690;6.472;2022-10-31T00:01:32;7.03;;;4.13;;
15363;SDS011;7781;49.690;6.472;2022-10-31T00:04:02;6.00;;;3.60;;
15363;SDS011;7781;49.690;6.472;2022-10-31T00:06:30;6.77;;;4.23;;
15363;SDS011;7781;49.690;6.472;2022-10-31T00:08:59;9.13;;;4.53;;
15363;SDS011;7781;49.690;6.472;2022-10-31T00:11:30;10.23;;;4.00;;
15363;SDS011;7781;49.690;6.472;2022-10-31T00:13:58;9.37;;;4.17;;
15363;SDS011;7781;49.690;6.472;2022-10-31T00:16:27;7.10;;;4.40;;
15363;SDS011;7781;49.690;6.472;2022-10-31T00:18:57;8.40;;;4.77;;
15363;SDS011;7781;49.690;6.472;2022-10-31T00:21:27;11.10;;;4.33;;
15363;SDS011;7781;49.690;6.472;2022-10-31T00:23:56;22.33;;;5.27;;
15363;SDS011;7781;49.690;6.472;2022-10-31T00:26:26;9.57;;;5.33;;
15363;SDS011;7781;49.690;6.472;2022-10-31T00:28:55;13.57;;;5.77;;
15363;SDS011;7781;49.690;6.472;2022-10-31T00:31:26;18.07;;;6.50;;
15363;SDS011;7781;49.690;6.472;2022-10-31T00:33:54;13.10;;;5.73;;
15363;SDS011;7781;49.690;6.472;2022-10-31T00:36:24;9.87;;;5.60;;
15363;SDS011;7781;49.690;6.472;2022-10-31T00:38:52;7.73;;;4.80;;
15363;SDS011;7781;49.690;6.472;2022-10-31T00:41:20;8.90;;;5.27;;
15363;SDS011;7781;49.690;6.472;2022-10-31T00:43:48;11.93;;;6.00;;
15363;SDS011;7781;49.690;6.472;2022-10-31T00:46:18;8.90;;;5.10;;
15363;SDS011;7781;49.690;6.472;2022-10-31T00:48:48;9.73;;;5.60;;
15363;SDS011;7781;49.690;6.472;2022-10-31T00:51:16;9.97;;;5.37;;
15363;SDS011;7781;49.690;6.472;2022-10-31T00:53:44;15.63;;;5.40;;
15363;SDS011;7781;49.690;6.472;2022-10-31T00:56:13;11.40;;;4.80;;
15363;SDS011;7781;49.690;6.472;2022-10-31T00:58:41;7.87;;;4.40;;
15363;SDS011;7781;49.690;6.472;2022-10-31T01:01:09;13.00;;;5.80;;
15363;SDS011;7781;49.690;6.472;2022-10-31T01:03:39;9.93;;;5.47;;
15363;SDS011;7781;49.690;6.472;2022-10-31T01:06:11;10.00;;;5.80;;
15363;SDS011;7781;49.690;6.472;2022-10-31T01:08:40;12.40;;;5.60;;
15363;SDS011;7781;49.690;6.472;2022-10-31T01:11:12;11.10;;;5.17;;
15363;SDS011;7781;49.690;6.472;2022-10-31T01:13:41;13.60;;;5.77;;
15363;SDS011;7781;49.690;6.472;2022-10-31T01:16:11;9.93;;;4.53;;
15363;SDS011;7781;49.690;6.472;2022-10-31T01:18:42;5.63;;;4.63;;
15363;SDS011;7781;49.690;6.472;2022-10-31T01:21:11;11.50;;;5.20;;
15363;SDS011;7781;49.690;6.472;2022-10-31T01:23:40;16.20;;;5.43;;
15363;SDS011;7781;49.690;6.472;2022-10-31T01:26:12;9.37;;;5.00;;
15363;SDS011;7781;49.690;6.472;2022-10-31T01:28:43;9.30;;;5.47;;
15363;SDS011;7781;49.690;6.472;2022-10-31T01:31:13;13.43;;;5.50;;
15363;SDS011;7781;49.690;6.472;2022-10-31T01:33:44;9.80;;;4.37;;
15363;SDS011;7781;49.690;6.472;2022-10-31T01:36:13;11.20;;;4.73;;
15363;SDS011;7781;49.690;6.472;2022-10-31T01:38:44;11.40;;;4.70;;
15363;SDS011;7781;49.690;6.472;2022-10-31T01:41:13;11.97;;;4.50;;
15363;SDS011;7781;49.690;6.472;2022-10-31T01:43:47;9.93;;;4.40;;
15363;SDS011;7781;49.690;6.472;2022-10-31T01:46:19;9.30;;;4.50;;
15363;SDS011;7781;49.690;6.472;2022-10-31T01:48:51;8.83;;;4.80;;
15363;SDS011;7781;49.690;6.472;2022-10-31T01:51:23;6.67;;;3.93;;
15363;SDS011;7781;49.690;6.472;2022-10-31T01:53:54;14.47;;;4.87;;
15363;SDS011;7781;49.690;6.472;2022-10-31T01:56:25;7.80;;;4.47;;
15363;SDS011;7781;49.690;6.472;2022-10-31T01:58:53;9.43;;;5.30;;
15363;SDS011;7781;49.690;6.472;2022-10-31T02:01:23;22.27;;;4.60;;
15363;SDS011;7781;49.690;6.472;2022-10-31T02:03:52;7.63;;;4.73;;
15363;SDS011;7781;49.690;6.472;2022-10-31T02:06:26;6.30;;;4.23;;
15363;SDS011;7781;49.690;6.472;2022-10-31T02:08:59;7.27;;;4.70;;
15363;SDS011;7781;49.690;6.472;2022-10-31T02:11:29;7.33;;;5.00;;
15363;SDS011;7781;49.690;6.472;2022-10-31T02:14:00;7.10;;;4.77;;
15363;SDS011;7781;49.690;6.472;2022-10-31T02:16:30;8.97;;;4.30;;
15363;SDS011;7781;49.690;6.472;2022-10-31T02:18:59;12.40;;;4.93;;
15363;SDS011;7781;49.690;6.472;2022-10-31T02:21:29;8.37;;;5.40;;
15363;SDS011;7781;49.690;6.472;2022-10-31T02:30:24;8.10;;;4.97;;
15363;SDS011;7781;49.690;6.472;2022-10-31T02:33:09;7.70;;;5.13;;
15363;SDS011;7781;49.690;6.472;2022-10-31T02:35:49;11.10;;;5.20;;
15363;SDS011;7781;49.690;6.472;2022-10-31T02:38:25;11.10;;;5.40;;
15363;SDS011;7781;49.690;6.472;2022-10-31T02:41:05;12.70;;;5.50;;
15363;SDS011;7781;49.690;6.472;2022-10-31T02:43:51;8.90;;;5.40;;
15363;SDS011;7781;49.690;6.472;2022-10-31T02:46:28;6.77;;;5.00;;
15363;SDS011;7781;49.690;6.472;2022-10-31T02:49:06;14.53;;;5.80;;
15363;SDS011;7781;49.690;6.472;2022-10-31T02:51:38;8.93;;;5.43;;
15363;SDS011;7781;49.690;6.472;2022-10-31T02:54:16;12.37;;;5.53;;
15363;SDS011;7781;49.690;6.472;2022-10-31T02:56:49;9.17;;;5.40;;
15363;SDS011;7781;49.690;6.472;2022-10-31T02:59:22;9.23;;;4.93;;
15363;SDS011;7781;49.690;6.472;2022-10-31T03:01:56;9.63;;;4.83;;
15363;SDS011;7781;49.690;6.472;2022-10-31T03:04:55;9.00;;;4.70;;
15363;SDS011;7781;49.690;6.472;2022-10-31T03:07:35;12.30;;;5.40;;
15363;SDS011;7781;49.690;6.472;2022-10-31T03:10:12;8.27;;;4.97;;
15363;SDS011;7781;49.690;6.472;2022-10-31T03:12:46;7.60;;;5.00;;
15363;SDS011;7781;49.690;6.472;2022-10-31T03:15:21;18.63;;;4.80;;
15363;SDS011;7781;49.690;6.472;2022-10-31T03:17:55;9.77;;;4.93;;
15363;SDS011;7781;49.690;6.472;2022-10-31T03:20:30;8.13;;;4.60;;
15363;SDS011;7781;49.690;6.472;2022-10-31T03:23:03;11.03;;;4.80;;
15363;SDS011;7781;49.690;6.472;2022-10-31T03:25:35;11.33;;;4.80;;
15363;SDS011;7781;49.690;6.472;2022-10-31T03:28:07;12.30;;;5.20;;
15363;SDS011;7781;49.690;6.472;2022-10-31T03:30:38;11.57;;;4.90;;
15363;SDS011;7781;49.690;6.472;2022-10-31T03:33:11;10.60;;;4.60;;
15363;SDS011;7781;49.690;6.472;2022-10-31T03:35:46;10.80;;;4.33;;
15363;SDS011;7781;49.690;6.472;2022-10-31T03:38:20;14.03;;;5.00;;
15363;SDS011;7781;49.690;6.472;2022-10-31T03:40:49;8.97;;;4.80;;
15363;SDS011;7781;49.690;6.472;2022-10-31T03:43:21;9.53;;;4.50;;
15363;SDS011;7781;49.690;6.472;2022-10-31T03:45:54;12.70;;;4.90;;
15363;SDS011;7781;49.690;6.472;2022-10-31T03:48:23;8.10;;;4.50;;
15363;SDS011;7781;49.690;6.472;2022-10-31T03:50:55;6.30;;;4.27;;
15363;SDS011;7781;49.690;6.472;2022-10-31T03:53:31;6.10;;;4.03;;
15363;SDS011;7781;49.690;6.472;2022-10-31T03:56:04;5.37;;;3.40;;
15363;SDS011;7781;49.690;6.472;2022-10-31T03:58:38;12.87;;;4.23;;
15363;SDS011;7781;49.690;6.472;2022-10-31T04:01:11;4.97;;;3.77;;
15363;SDS011;7781;49.690;6.472;2022-10-31T04:03:44;9.50;;;3.70;;
15363;SDS011;7781;49.690;6.472;2022-10-31T04:06:14;8.33;;;4.37;;
15363;SDS011;7781;49.690;6.472;2022-10-31T04:08:49;11.50;;;3.77;;
15363;SDS011;7781;49.690;6.472;2022-10-31T04:11:23;12.10;;;4.20;;
15363;SDS011;7781;49.690;6.472;2022-10-31T04:14:14;11.20;;;4.73;;
15363;SDS011;7781;49.690;6.472;2022-10-31T04:16:43;7.53;;;4.20;;
15363;SDS011;7781;49.690;6.472;2022-10-31T04:19:12;12.20;;;4.27;;
15363;SDS011;7781;49.690;6.472;2022-10-31T04:21:43;9.90;;;4.13;;
15363;SDS011;7781;49.690;6.472;2022-10-31T04:24:11;7.27;;;4.43;;
15363;SDS011;7781;49.690;6.472;2022-10-31T04:26:40;9.70;;;4.70;;
15363;SDS011;7781;49.690;6.472;2022-10-31T04:29:08;13.47;;;5.03;;
15363;SDS011;7781;49.690;6.472;2022-10-31T04:31:37;8.13;;;4.33;;
15363;SDS011;7781;49.690;6.472;2022-10-31T04:34:05;9.23;;;4.77;;
15363;SDS011;7781;49.690;6.472;2022-10-31T04:36:34;10.37;;;5.20;;
15363;SDS011;7781;49.690;6.472;2022-10-31T04:39:03;11.23;;;4.70;;
15363;SDS011;7781;49.690;6.472;2022-10-31T04:41:44;8.30;;;4.10;;
15363;SDS011;7781;49.690;6.472;2022-10-31T04:44:14;7.07;;;4.60;;
15363;SDS011;7781;49.690;6.472;2022-10-31T04:46:46;12.50;;;4.53;;
15363;SDS011;7781;49.690;6.472;2022-10-31T04:49:14;6.47;;;3.90;;
15363;SDS011;7781;49.690;6.472;2022-10-31T04:51:42;8.50;;;4.80;;
15363;SDS011;7781;49.690;6.472;2022-10-31T04:54:13;6.73;;;4.53;;
15363;SDS011;7781;49.690;6.472;2022-10-31T04:56:59;11.50;;;4.90;;
15363;SDS011;7781;49.690;6.472;2022-10-31T04:59:28;21.07;;;5.77;;
15363;SDS011;7781;49.690;6.472;2022-10-31T05:01:58;10.77;;;4.53;;
15363;SDS011;7781;49.690;6.472;2022-10-31T05:04:43;8.67;;;4.73;;
15363;SDS011;7781;49.690;6.472;2022-10-31T05:07:11;9.10;;;4.93;;
15363;SDS011;7781;49.690;6.472;2022-10-31T05:09:41;16.13;;;4.63;;
15363;SDS011;7781;49.690;6.472;2022-10-31T05:12:11;10.80;;;4.90;;
15363;SDS011;7781;49.690;6.472;2022-10-31T05:15:02;9.30;;;4.70;;
15363;SDS011;7781;49.690;6.472;2022-10-31T05:17:50;8.00;;;4.40;;
15363;SDS011;7781;49.690;6.472;2022-10-31T05:20:38;16.53;;;5.50;;
15363;SDS011;7781;49.690;6.472;2022-10-31T05:23:29;10.73;;;4.83;;
15363;SDS011;7781;49.690;6.472;2022-10-31T05:26:00;8.43;;;5.43;;
15363;SDS011;7781;49.690;6.472;2022-10-31T05:28:28;13.23;;;6.13;;
15363;SDS011;7781;49.690;6.472;2022-10-31T05:30:56;14.57;;;5.57;;
15363;SDS011;7781;49.690;6.472;2022-10-31T05:33:25;10.83;;;5.57;;
15363;SDS011;7781;49.690;6.472;2022-10-31T05:35:52;10.07;;;5.73;;
15363;SDS011;7781;49.690;6.472;2022-10-31T05:38:33;16.10;;;5.83;;
15363;SDS011;7781;49.690;6.472;2022-10-31T05:41:11;15.20;;;6.10;;
15363;SDS011;7781;49.690;6.472;2022-10-31T05:43:43;9.00;;;5.10;;
15363;SDS011;7781;49.690;6.472;2022-10-31T05:46:13;12.30;;;6.03;;
15363;SDS011;7781;49.690;6.472;2022-10-31T05:48:59;11.97;;;6.50;;
15363;SDS011;7781;49.690;6.472;2022-10-31T05:51:46;17.90;;;6.43;;
15363;SDS011;7781;49.690;6.472;2022-10-31T05:54:14;12.00;;;5.93;;
15363;SDS011;7781;49.690;6.472;2022-10-31T05:56:46;14.20;;;5.93;;
15363;SDS011;7781;49.690;6.472;2022-10-31T05:59:14;10.00;;;6.00;;
15363;SDS011;7781;49.690;6.472;2022-10-31T06:01:43;10.53;;;6.10;;
15363;SDS011;7781;49.690;6.472;2022-10-31T06:04:43;13.50;;;6.00;;
15363;SDS011;7781;49.690;6.472;2022-10-31T06:07:12;15.70;;;6.57;;
15363;SDS011;7781;49.690;6.472;2022-10-31T06:09:40;18.00;;;6.23;;
15363;SDS011;7781;49.690;6.472;2022-10-31T06:12:10;26.83;;;6.83;;
15363;SDS011;7781;49.690;6.472;2022-10-31T06:14:57;17.60;;;6.90;;
15363;SDS011;7781;49.690;6.472;2022-10-31T06:17:25;35.47;;;6.73;;
15363;SDS011;7781;49.690;6.472;2022-10-31T06:20:16;17.60;;;6.63;;
15363;SDS011;7781;49.690;6.472;2022-10-31T06:22:54;16.00;;;7.07;;
15363;SDS011;7781;49.690;6.472;2022-10-31T06:25:23;30.00;;;6.70;;
15363;SDS011;7781;49.690;6.472;2022-10-31T06:27:53;16.00;;;6.60;;
15363;SDS011;7781;49.690;6.472;2022-10-31T06:30:26;13.43;;;6.70;;
15363;SDS011;7781;49.690;6.472;2022-10-31T06:32:58;14.50;;;7.40;;
15363;SDS011;7781;49.690;6.472;2022-10-31T06:35:29;17.50;;;7.73;;
15363;SDS011;7781;49.690;6.472;2022-10-31T06:37:58;17.27;;;7.63;;
15363;SDS011;7781;49.690;6.472;2022-10-31T06:40:37;23.73;;;7.30;;
15363;SDS011;7781;49.690;6.472;2022-10-31T06:43:18;15.07;;;6.70;;
15363;SDS011;7781;49.690;6.472;2022-10-31T06:45:46;17.20;;;7.47;;
15363;SDS011;7781;49.690;6.472;2022-10-31T06:48:22;16.20;;;7.63;;
15363;SDS011;7781;49.690;6.472;2022-10-31T06:51:16;15.90;;;7.63;;
15363;SDS011;7781;49.690;6.472;2022-10-31T06:53:45;24.23;;;8.97;;
15363;SDS011;7781;49.690;6.472;2022-10-31T06:56:15;14.87;;;7.23;;
15363;SDS011;7781;49.690;6.472;2022-10-31T06:58:51;32.23;;;7.93;;
15363;SDS011;7781;49.690;6.472;2022-10-31T07:01:34;16.83;;;7.43;;
15363;SDS011;7781;49.690;6.472;2022-10-31T07:04:03;15.90;;;7.40;;
15363;SDS011;7781;49.690;6.472;2022-10-31T07:06:34;18.63;;;8.27;;
15363;SDS011;7781;49.690;6.472;2022-10-31T07:09:02;18.77;;;7.43;;
15363;SDS011;7781;49.690;6.472;2022-10-31T07:11:30;15.03;;;6.93;;
15363;SDS011;7781;49.690;6.472;2022-10-31T07:14:00;34.27;;;7.10;;
15363;SDS011;7781;49.690;6.472;2022-10-31T07:16:28;17.90;;;7.03;;
15363;SDS011;7781;49.690;6.472;2022-10-31T07:18:56;15.47;;;6.70;;
15363;SDS011;7781;49.690;6.472;2022-10-31T07:21:24;32.67;;;7.33;;
15363;SDS011;7781;49.690;6.472;2022-10-31T07:23:52;12.47;;;5.67;;
15363;SDS011;7781;49.690;6.472;2022-10-31T07:26:39;20.10;;;6.10;;
15363;SDS011;7781;49.690;6.472;2022-10-31T07:29:10;15.10;;;6.50;;
15363;SDS011;7781;49.690;6.472;2022-10-31T07:31:38;11.20;;;5.43;;
15363;SDS011;7781;49.690;6.472;2022-10-31T07:34:14;9.77;;;5.90;;
15363;SDS011;7781;49.690;6.472;2022-10-31T07:37:10;25.40;;;6.57;;
15363;SDS011;7781;49.690;6.472;2022-10-31T07:39:38;24.13;;;6.80;;
15363;SDS011;7781;49.690;6.472;2022-10-31T07:42:06;15.87;;;7.20;;
15363;SDS011;7781;49.690;6.472;2022-10-31T07:44:36;111.63;;;9.30;;
15363;SDS011;7781;49.690;6.472;2022-10-31T07:47:23;21.03;;;7.70;;
15363;SDS011;7781;49.690;6.472;2022-10-31T07:50:10;55.33;;;7.43;;
15363;SDS011;7781;49.690;6.472;2022-10-31T07:53:00;32.57;;;6.93;;
15363;SDS011;7781;49.690;6.472;2022-10-31T07:56:07;37.07;;;7.37;;
15363;SDS011;7781;49.690;6.472;2022-10-31T07:58:36;27.47;;;7.83;;
15363;SDS011;7781;49.690;6.472;2022-10-31T08:01:05;29.17;;;6.90;;
15363;SDS011;7781;49.690;6.472;2022-10-31T08:03:41;35.80;;;7.50;;
15363;SDS011;7781;49.690;6.472;2022-10-31T08:06:30;14.83;;;7.57;;
15363;SDS011;7781;49.690;6.472;2022-10-31T08:09:10;14.57;;;7.60;;
15363;SDS011;7781;49.690;6.472;2022-10-31T08:11:39;17.00;;;6.80;;
15363;SDS011;7781;49.690;6.472;2022-10-31T08:14:07;23.47;;;7.57;;
15363;SDS011;7781;49.690;6.472;2022-10-31T08:16:37;15.27;;;7.13;;
15363;SDS011;7781;49.690;6.472;2022-10-31T08:19:06;72.60;;;8.50;;
15363;SDS011;7781;49.690;6.472;2022-10-31T08:21:37;19.93;;;7.73;;
15363;SDS011;7781;49.690;6.472;2022-10-31T08:24:07;17.33;;;7.97;;
15363;SDS011;7781;49.690;6.472;2022-10-31T08:26:35;18.43;;;7.60;;
15363;SDS011;7781;49.690;6.472;2022-10-31T08:29:07;14.07;;;6.80;;
15363;SDS011;7781;49.690;6.472;2022-10-31T08:31:37;31.13;;;9.30;;
15363;SDS011;7781;49.690;6.472;2022-10-31T08:34:27;15.83;;;7.60;;
15363;SDS011;7781;49.690;6.472;2022-10-31T08:37:13;26.60;;;6.70;;
15363;SDS011;7781;49.690;6.472;2022-10-31T08:39:48;20.77;;;8.17;;
15363;SDS011;7781;49.690;6.472;2022-10-31T08:42:16;25.13;;;7.77;;
15363;SDS011;7781;49.690;6.472;2022-10-31T08:44:44;25.90;;;7.53;;
15363;SDS011;7781;49.690;6.472;2022-10-31T08:47:14;21.20;;;7.23;;
15363;SDS011;7781;49.690;6.472;2022-10-31T08:49:42;16.17;;;7.40;;
15363;SDS011;7781;49.690;6.472;2022-10-31T08:52:10;12.97;;;7.00;;
15363;SDS011;7781;49.690;6.472;2022-10-31T08:54:40;12.60;;;7.20;;
15363;SDS011;7781;49.690;6.472;2022-10-31T08:57:27;9.43;;;6.30;;
15363;SDS011;7781;49.690;6.472;2022-10-31T08:59:57;13.20;;;6.00;;
15363;SDS011;7781;49.690;6.472;2022-10-31T09:02:56;14.07;;;6.37;;
15363;SDS011;7781;49.690;6.472;2022-10-31T09:05:26;16.27;;;6.23;;
15363;SDS011;7781;49.690;6.472;2022-10-31T09:07:56;13.60;;;6.50;;
15363;SDS011;7781;49.690;6.472;2022-10-31T09:10:26;12.97;;;6.50;;
15363;SDS011;7781;49.690;6.472;2022-10-31T09:12:55;10.27;;;5.73;;
15363;SDS011;7781;49.690;6.472;2022-10-31T09:15:47;10.83;;;6.20;;
15363;SDS011;7781;49.690;6.472;2022-10-31T09:18:24;9.47;;;6.70;;
15363;SDS011;7781;49.690;6.472;2022-10-31T09:20:57;12.57;;;6.10;;
15363;SDS011;7781;49.690;6.472;2022-10-31T09:23:28;13.33;;;7.10;;
15363;SDS011;7781;49.690;6.472;2022-10-31T09:25:59;9.37;;;5.83;;
15363;SDS011;7781;49.690;6.472;2022-10-31T09:28:40;8.40;;;6.10;;
15363;SDS011;7781;49.690;6.472;2022-10-31T09:31:12;9.50;;;6.03;;
15363;SDS011;7781;49.690;6.472;2022-10-31T09:34:04;12.97;;;5.57;;
15363;SDS011;7781;49.690;6.472;2022-10-31T09:36:35;13.60;;;6.70;;
15363;SDS011;7781;49.690;6.472;2022-10-31T09:39:06;16.90;;;5.40;;
15363;SDS011;7781;49.690;6.472;2022-10-31T09:41:45;14.47;;;6.70;;
15363;SDS011;7781;49.690;6.472;2022-10-31T09:44:29;10.93;;;5.80;;
15363;SDS011;7781;49.690;6.472;2022-10-31T09:47:14;10.40;;;6.20;;
15363;SDS011;7781;49.690;6.472;2022-10-31T09:50:14;12.00;;;5.73;;
15363;SDS011;7781;49.690;6.472;2022-10-31T09:52:48;7.60;;;4.73;;
15363;SDS011;7781;49.690;6.472;2022-10-31T09:55:26;9.70;;;5.90;;
15363;SDS011;7781;49.690;6.472;2022-10-31T09:58:04;11.80;;;5.33;;
15363;SDS011;7781;49.690;6.472;2022-10-31T10:00:33;11.47;;;6.30;;
15363;SDS011;7781;49.690;6.472;2022-10-31T10:03:04;11.83;;;5.70;;
15363;SDS011;7781;49.690;6.472;2022-10-31T10:05:43;9.50;;;5.90;;
15363;SDS011;7781;49.690;6.472;2022-10-31T10:08:27;9.50;;;6.40;;
15363;SDS011;7781;49.690;6.472;2022-10-31T10:11:12;10.23;;;6.60;;
15363;SDS011;7781;49.690;6.472;2022-10-31T10:13:57;14.50;;;6.43;;
15363;SDS011;7781;49.690;6.472;2022-10-31T10:16:38;13.47;;;5.70;;
15363;SDS011;7781;49.690;6.472;2022-10-31T10:19:20;16.90;;;5.90;;
15363;SDS011;7781;49.690;6.472;2022-10-31T10:22:01;8.73;;;5.50;;
15363;SDS011;7781;49.690;6.472;2022-10-31T10:24:37;15.57;;;6.60;;
15363;SDS011;7781;49.690;6.472;2022-10-31T10:27:17;14.57;;;6.50;;
15363;SDS011;7781;49.690;6.472;2022-10-31T10:29:53;11.10;;;6.07;;
15363;SDS011;7781;49.690;6.472;2022-10-31T10:32:28;13.80;;;6.10;;
15363;SDS011;7781;49.690;6.472;2022-10-31T10:35:02;10.67;;;6.10;;
15363;SDS011;7781;49.690;6.472;2022-10-31T10:37:40;23.13;;;7.80;;
15363;SDS011;7781;49.690;6.472;2022-10-31T10:40:13;14.10;;;6.33;;
15363;SDS011;7781;49.690;6.472;2022-10-31T10:42:44;14.00;;;6.10;;
15363;SDS011;7781;49.690;6.472;2022-10-31T10:45:35;11.20;;;7.20;;
15363;SDS011;7781;49.690;6.472;2022-10-31T10:48:29;9.60;;;6.53;;
15363;SDS011;7781;49.690;6.472;2022-10-31T10:51:04;16.67;;;6.57;;
15363;SDS011;7781;49.690;6.472;2022-10-31T10:54:06;15.97;;;7.40;;
15363;SDS011;7781;49.690;6.472;2022-10-31T10:56:59;9.70;;;6.17;;
15363;SDS011;7781;49.690;6.472;2022-10-31T10:59:32;13.90;;;6.30;;
15363;SDS011;7781;49.690;6.472;2022-10-31T11:02:02;14.60;;;6.13;;
15363;SDS011;7781;49.690;6.472;2022-10-31T11:04:42;24.60;;;6.90;;
15363;SDS011;7781;49.690;6.472;2022-10-31T11:07:11;13.97;;;7.93;;
15363;SDS011;7781;49.690;6.472;2022-10-31T11:09:41;12.80;;;7.40;;
15363;SDS011;7781;49.690;6.472;2022-10-31T11:12:10;10.13;;;7.13;;
15363;SDS011;7781;49.690;6.472;2022-10-31T11:14:46;12.37;;;7.77;;
15363;SDS011;7781;49.690;6.472;2022-10-31T11:17:20;8.20;;;6.53;;
15363;SDS011;7781;49.690;6.472;2022-10-31T11:20:05;18.87;;;7.13;;
15363;SDS011;7781;49.690;6.472;2022-10-31T11:22:49;24.33;;;9.20;;
15363;SDS011;7781;49.690;6.472;2022-10-31T11:25:30;15.20;;;9.47;;
15363;SDS011;7781;49.690;6.472;2022-10-31T11:27:59;18.43;;;10.30;;
15363;SDS011;7781;49.690;6.472;2022-10-31T11:30:27;12.80;;;6.87;;
15363;SDS011;7781;49.690;6.472;2022-10-31T11:32:56;16.13;;;6.13;;
15363;SDS011;7781;49.690;6.472;2022-10-31T11:35:26;9.60;;;6.60;;
15363;SDS011;7781;49.690;6.472;2022-10-31T11:37:56;20.27;;;7.80;;
15363;SDS011;7781;49.690;6.472;2022-10-31T11:40:29;10.67;;;6.57;;
15363;SDS011;7781;49.690;6.472;2022-10-31T11:42:58;21.17;;;6.60;;
15363;SDS011;7781;49.690;6.472;2022-10-31T11:45:28;7.93;;;5.83;;
15363;SDS011;7781;49.690;6.472;2022-10-31T11:47:57;9.27;;;5.43;;
15363;SDS011;7781;49.690;6.472;2022-10-31T11:50:31;9.17;;;5.80;;
15363;SDS011;7781;49.690;6.472;2022-10-31T11:53:03;11.63;;;5.43;;
15363;SDS011;7781;49.690;6.472;2022-10-31T11:55:41;16.00;;;6.27;;
15363;SDS011;7781;49.690;6.472;2022-10-31T11:58:19;8.53;;;5.60;;
15363;SDS011;7781;49.690;6.472;2022-10-31T12:00:49;15.57;;;5.33;;
15363;SDS011;7781;49.690;6.472;2022-10-31T12:03:27;8.83;;;5.10;;
15363;SDS011;7781;49.690;6.472;2022-10-31T12:06:12;7.60;;;5.17;;
15363;SDS011;7781;49.690;6.472;2022-10-31T12:08:45;9.50;;;5.17;;
15363;SDS011;7781;49.690;6.472;2022-10-31T12:11:22;9.73;;;5.20;;
15363;SDS011;7781;49.690;6.472;2022-10-31T12:14:02;10.27;;;5.00;;
15363;SDS011;7781;49.690;6.472;2022-10-31T12:16:42;10.37;;;5.13;;
15363;SDS011;7781;49.690;6.472;2022-10-31T12:19:19;13.10;;;4.70;;
15363;SDS011;7781;49.690;6.472;2022-10-31T12:22:03;17.93;;;5.23;;
15363;SDS011;7781;49.690;6.472;2022-10-31T12:24:52;10.30;;;4.93;;
15363;SDS011;7781;49.690;6.472;2022-10-31T12:27:35;13.63;;;4.80;;
15363;SDS011;7781;49.690;6.472;2022-10-31T12:30:18;11.60;;;4.33;;
15363;SDS011;7781;49.690;6.472;2022-10-31T12:32:56;10.73;;;4.70;;
15363;SDS011;7781;49.690;6.472;2022-10-31T12:35:40;8.97;;;4.60;;
15363;SDS011;7781;49.690;6.472;2022-10-31T12:38:19;11.40;;;5.10;;
15363;SDS011;7781;49.690;6.472;2022-10-31T12:41:09;5.77;;;3.67;;
15363;SDS011;7781;49.690;6.472;2022-10-31T12:43:51;11.20;;;4.37;;
15363;SDS011;7781;49.690;6.472;2022-10-31T12:46:25;12.40;;;4.43;;
15363;SDS011;7781;49.690;6.472;2022-10-31T12:49:05;8.17;;;3.90;;
15363;SDS011;7781;49.690;6.472;2022-10-31T12:51:48;8.77;;;4.77;;
15363;SDS011;7781;49.690;6.472;2022-10-31T12:54:29;12.57;;;4.93;;
15363;SDS011;7781;49.690;6.472;2022-10-31T12:57:17;7.47;;;4.53;;
15363;SDS011;7781;49.690;6.472;2022-10-31T12:59:56;9.80;;;4.80;;
15363;SDS011;7781;49.690;6.472;2022-10-31T13:02:29;13.60;;;4.33;;
15363;SDS011;7781;49.690;6.472;2022-10-31T13:05:02;7.17;;;3.70;;
15363;SDS011;7781;49.690;6.472;2022-10-31T13:07:34;9.30;;;3.90;;
15363;SDS011;7781;49.690;6.472;2022-10-31T13:10:05;7.60;;;4.00;;
15363;SDS011;7781;49.690;6.472;2022-10-31T13:12:41;8.33;;;4.17;;
15363;SDS011;7781;49.690;6.472;2022-10-31T13:15:14;13.13;;;4.50;;
15363;SDS011;7781;49.690;6.472;2022-10-31T13:17:46;10.57;;;4.77;;
15363;SDS011;7781;49.690;6.472;2022-10-31T13:20:19;11.30;;;3.73;;
15363;SDS011;7781;49.690;6.472;2022-10-31T13:22:52;10.07;;;4.70;;
15363;SDS011;7781;49.690;6.472;2022-10-31T13:25:24;6.40;;;4.53;;
15363;SDS011;7781;49.690;6.472;2022-10-31T13:27:57;14.83;;;3.83;;
15363;SDS011;7781;49.690;6.472;2022-10-31T13:30:31;9.47;;;4.43;;
15363;SDS011;7781;49.690;6.472;2022-10-31T13:33:03;8.50;;;4.33;;
15363;SDS011;7781;49.690;6.472;2022-10-31T13:35:37;7.63;;;3.83;;
15363;SDS011;7781;49.690;6.472;2022-10-31T13:38:11;7.73;;;3.90;;
15363;SDS011;7781;49.690;6.472;2022-10-31T13:40:50;11.00;;;3.73;;
15363;SDS011;7781;49.690;6.472;2022-10-31T13:43:25;5.50;;;3.40;;
15363;SDS011;7781;49.690;6.472;2022-10-31T13:45:59;14.67;;;4.30;;
15363;SDS011;7781;49.690;6.472;2022-10-31T13:48:34;9.87;;;3.97;;
15363;SDS011;7781;49.690;6.472;2022-10-31T13:51:05;9.87;;;3.40;;
15363;SDS011;7781;49.690;6.472;2022-10-31T13:53:36;7.00;;;3.83;;
15363;SDS011;7781;49.690;6.472;2022-10-31T13:56:20;10.27;;;4.40;;
15363;SDS011;7781;49.690;6.472;2022-10-31T13:58:56;8.43;;;3.53;;
15363;SDS011;7781;49.690;6.472;2022-10-31T14:01:32;6.10;;;3.73;;
15363;SDS011;7781;49.690;6.472;2022-10-31T14:04:03;7.13;;;4.30;;
15363;SDS011;7781;49.690;6.472;2022-10-31T14:06:43;9.00;;;3.97;;
15363;SDS011;7781;49.690;6.472;2022-10-31T14:09:17;6.73;;;3.90;;
15363;SDS011;7781;49.690;6.472;2022-10-31T14:11:49;9.63;;;4.37;;
15363;SDS011;7781;49.690;6.472;2022-10-31T14:14:18;7.73;;;4.00;;
15363;SDS011;7781;49.690;6.472;2022-10-31T14:16:54;19.23;;;4.30;;
15363;SDS011;7781;49.690;6.472;2022-10-31T14:19:24;9.00;;;4.40;;
15363;SDS011;7781;49.690;6.472;2022-10-31T14:21:53;9.77;;;4.30;;
15363;SDS011;7781;49.690;6.472;2022-10-31T14:24:32;13.10;;;4.57;;
15363;SDS011;7781;49.690;6.472;2022-10-31T14:27:02;19.07;;;4.50;;
15363;SDS011;7781;49.690;6.472;2022-10-31T14:29:52;16.53;;;3.77;;
15363;SDS011;7781;49.690;6.472;2022-10-31T14:32:22;14.03;;;4.00;;
15363;SDS011;7781;49.690;6.472;2022-10-31T14:34:53;6.57;;;3.43;;
15363;SDS011;7781;49.690;6.472;2022-10-31T14:37:27;7.17;;;3.63;;
15363;SDS011;7781;49.690;6.472;2022-10-31T14:45:59;7.43;;;3.30;;
15363;SDS011;7781;49.690;6.472;2022-10-31T14:48:43;11.70;;;4.10;;
15363;SDS011;7781;49.690;6.472;2022-10-31T14:51:21;17.10;;;5.97;;
15363;SDS011;7781;49.690;6.472;2022-10-31T14:53:51;9.90;;;3.73;;
15363;SDS011;7781;49.690;6.472;2022-10-31T14:56:22;7.90;;;2.60;;
15363;SDS011;7781;49.690;6.472;2022-10-31T14:58:52;10.67;;;2.60;;
15363;SDS011;7781;49.690;6.472;2022-10-31T15:01:24;7.03;;;2.50;;
15363;SDS011;7781;49.690;6.472;2022-10-31T15:03:59;9.43;;;2.70;;
15363;SDS011;7781;49.690;6.472;2022-10-31T15:06:51;8.40;;;2.90;;
15363;SDS011;7781;49.690;6.472;2022-10-31T15:09:22;10.30;;;3.23;;
15363;SDS011;7781;49.690;6.472;2022-10-31T15:11:52;3.70;;;2.50;;
15363;SDS011;7781;49.690;6.472;2022-10-31T15:14:22;8.00;;;3.33;;
15363;SDS011;7781;49.690;6.472;2022-10-31T15:16:52;7.97;;;3.03;;
15363;SDS011;7781;49.690;6.472;2022-10-31T15:19:23;7.23;;;2.57;;
15363;SDS011;7781;49.690;6.472;2022-10-31T15:21:52;6.50;;;2.97;;
15363;SDS011;7781;49.690;6.472;2022-10-31T15:24:22;5.70;;;2.60;;
15363;SDS011;7781;49.690;6.472;2022-10-31T15:26:55;6.60;;;3.43;;
15363;SDS011;7781;49.690;6.472;2022-10-31T15:29:30;6.20;;;2.87;;
15363;SDS011;7781;49.690;6.472;2022-10-31T15:32:00;6.53;;;3.17;;
15363;SDS011;7781;49.690;6.472;2022-10-31T15:34:38;8.27;;;2.67;;
15363;SDS011;7781;49.690;6.472;2022-10-31T15:37:08;9.37;;;2.60;;
15363;SDS011;7781;49.690;6.472;2022-10-31T15:39:38;7.80;;;2.60;;
15363;SDS011;7781;49.690;6.472;2022-10-31T15:42:13;5.67;;;2.90;;
15363;SDS011;7781;49.690;6.472;2022-10-31T15:44:46;3.93;;;2.50;;
15363;SDS011;7781;49.690;6.472;2022-10-31T15:47:17;8.60;;;2.60;;
15363;SDS011;7781;49.690;6.472;2022-10-31T15:49:49;5.10;;;2.60;;